sensor_id;sensor_type;location;lat;lon;timestamp;P1;durP1;ratioP1;P2;durP2;ratioP2
42140;SDS011;27809;51.864;5.646;2023-04-24T00:01:21;2.08;;;1.58;;
42140;SDS011;27809;51.864;5.646;2023-04-24T00:03:47;1.08;;;0.57;;
42140;SDS011;27809;51.864;5.646;2023-04-24T00:06:12;1.30;;;0.52;;
42140;SDS011;27809;51.864;5.646;2023-04-24T00:08:38;1.15;;;0.60;;
42140;SDS011;27809;51.864;5.646;2023-04-24T00:11:03;3.20;;;0.40;;
42140;SDS011;27809;51.864;5.646;2023-04-24T00:13:29;1.77;;;0.50;;
42140;SDS011;27809;51.864;5.646;2023-04-24T00:15:55;0.47;;;0.22;;
42140;SDS011;27809;51.864;5.646;2023-04-24T00:18:21;1.10;;;0.40;;
42140;SDS011;27809;51.864;5.646;2023-04-24T00:20:47;0.52;;;0.30;;
42140;SDS011;27809;51.864;5.646;2023-04-24T00:23:12;0.95;;;0.70;;
42140;SDS011;27809;51.864;5.646;2023-04-24T00:25:38;1.20;;;0.40;;
42140;SDS011;27809;51.864;5.646;2023-04-24T00:28:04;0.47;;;0.30;;
42140;SDS011;27809;51.864;5.646;2023-04-24T00:30:30;0.40;;;0.38;;
42140;SDS011;27809;51.864;5.646;2023-04-24T00:32:56;4.13;;;1.13;;
42140;SDS011;27809;51.864;5.646;2023-04-24T00:35:22;1.00;;;0.52;;
42140;SDS011;27809;51.864;5.646;2023-04-24T00:37:48;2.97;;;2.10;;
42140;SDS011;27809;51.864;5.646;2023-04-24T00:40:13;3.13;;;1.85;;
42140;SDS011;27809;51.864;5.646;2023-04-24T00:42:39;6.30;;;3.10;;
42140;SDS011;27809;51.864;5.646;2023-04-24T00:45:05;9.02;;;5.32;;
42140;SDS011;27809;51.864;5.646;2023-04-24T00:47:32;9.68;;;5.95;;
42140;SDS011;27809;51.864;5.646;2023-04-24T00:49:58;9.32;;;5.80;;
42140;SDS011;27809;51.864;5.646;2023-04-24T00:52:25;11.35;;;6.15;;
42140;SDS011;27809;51.864;5.646;2023-04-24T00:54:51;15.88;;;7.15;;
42140;SDS011;27809;51.864;5.646;2023-04-24T00:57:16;15.25;;;8.55;;
42140;SDS011;27809;51.864;5.646;2023-04-24T00:59:42;15.35;;;8.60;;
42140;SDS011;27809;51.864;5.646;2023-04-24T01:02:09;16.55;;;8.90;;
42140;SDS011;27809;51.864;5.646;2023-04-24T01:04:35;15.82;;;9.57;;
42140;SDS011;27809;51.864;5.646;2023-04-24T01:07:01;15.32;;;9.00;;
42140;SDS011;27809;51.864;5.646;2023-04-24T01:09:27;21.25;;;11.52;;
42140;SDS011;27809;51.864;5.646;2023-04-24T01:11:53;17.45;;;9.73;;
42140;SDS011;27809;51.864;5.646;2023-04-24T01:14:19;19.02;;;10.75;;
42140;SDS011;27809;51.864;5.646;2023-04-24T01:16:45;22.50;;;12.15;;
42140;SDS011;27809;51.864;5.646;2023-04-24T01:19:11;17.88;;;10.00;;
42140;SDS011;27809;51.864;5.646;2023-04-24T01:21:38;21.17;;;10.50;;
42140;SDS011;27809;51.864;5.646;2023-04-24T01:24:05;16.90;;;9.73;;
42140;SDS011;27809;51.864;5.646;2023-04-24T01:26:31;17.95;;;9.85;;
42140;SDS011;27809;51.864;5.646;2023-04-24T01:28:57;20.45;;;11.45;;
42140;SDS011;27809;51.864;5.646;2023-04-24T01:31:23;14.00;;;7.78;;
42140;SDS011;27809;51.864;5.646;2023-04-24T01:33:49;15.75;;;9.48;;
42140;SDS011;27809;51.864;5.646;2023-04-24T01:36:15;15.07;;;8.75;;
42140;SDS011;27809;51.864;5.646;2023-04-24T01:38:41;12.35;;;8.05;;
42140;SDS011;27809;51.864;5.646;2023-04-24T01:41:07;13.50;;;8.95;;
42140;SDS011;27809;51.864;5.646;2023-04-24T01:43:32;13.52;;;8.35;;
42140;SDS011;27809;51.864;5.646;2023-04-24T01:45:58;13.52;;;8.48;;
42140;SDS011;27809;51.864;5.646;2023-04-24T01:48:24;15.65;;;7.57;;
42140;SDS011;27809;51.864;5.646;2023-04-24T01:50:49;12.30;;;8.80;;
42140;SDS011;27809;51.864;5.646;2023-04-24T01:53:15;24.20;;;9.52;;
42140;SDS011;27809;51.864;5.646;2023-04-24T01:55:40;16.60;;;9.85;;
42140;SDS011;27809;51.864;5.646;2023-04-24T01:58:06;17.60;;;9.98;;
42140;SDS011;27809;51.864;5.646;2023-04-24T02:00:32;16.38;;;9.15;;
42140;SDS011;27809;51.864;5.646;2023-04-24T02:02:57;15.23;;;9.38;;
42140;SDS011;27809;51.864;5.646;2023-04-24T02:05:23;17.02;;;9.90;;
42140;SDS011;27809;51.864;5.646;2023-04-24T02:07:49;17.40;;;10.27;;
42140;SDS011;27809;51.864;5.646;2023-04-24T02:10:14;21.08;;;10.95;;
42140;SDS011;27809;51.864;5.646;2023-04-24T02:12:40;14.63;;;9.90;;
42140;SDS011;27809;51.864;5.646;2023-04-24T02:15:05;27.58;;;11.07;;
42140;SDS011;27809;51.864;5.646;2023-04-24T02:17:31;26.33;;;11.73;;
42140;SDS011;27809;51.864;5.646;2023-04-24T02:19:57;22.70;;;12.10;;
42140;SDS011;27809;51.864;5.646;2023-04-24T02:22:22;18.88;;;10.82;;
42140;SDS011;27809;51.864;5.646;2023-04-24T02:24:48;21.42;;;11.20;;
42140;SDS011;27809;51.864;5.646;2023-04-24T02:27:13;18.70;;;10.30;;
42140;SDS011;27809;51.864;5.646;2023-04-24T02:29:39;19.92;;;11.52;;
42140;SDS011;27809;51.864;5.646;2023-04-24T02:32:05;18.10;;;10.45;;
42140;SDS011;27809;51.864;5.646;2023-04-24T02:34:30;17.65;;;10.95;;
42140;SDS011;27809;51.864;5.646;2023-04-24T02:36:56;15.40;;;10.07;;
42140;SDS011;27809;51.864;5.646;2023-04-24T02:39:22;17.17;;;9.75;;
42140;SDS011;27809;51.864;5.646;2023-04-24T02:41:47;19.90;;;9.90;;
42140;SDS011;27809;51.864;5.646;2023-04-24T02:44:13;16.98;;;10.90;;
42140;SDS011;27809;51.864;5.646;2023-04-24T02:46:38;17.50;;;10.07;;
42140;SDS011;27809;51.864;5.646;2023-04-24T02:49:06;19.10;;;10.73;;
42140;SDS011;27809;51.864;5.646;2023-04-24T02:51:31;15.02;;;10.38;;
42140;SDS011;27809;51.864;5.646;2023-04-24T02:53:57;18.13;;;10.10;;
42140;SDS011;27809;51.864;5.646;2023-04-24T02:56:22;16.50;;;10.00;;
42140;SDS011;27809;51.864;5.646;2023-04-24T02:58:48;25.23;;;10.35;;
42140;SDS011;27809;51.864;5.646;2023-04-24T03:01:13;18.60;;;11.40;;
42140;SDS011;27809;51.864;5.646;2023-04-24T03:03:39;20.73;;;11.35;;
42140;SDS011;27809;51.864;5.646;2023-04-24T03:06:05;20.92;;;11.68;;
42140;SDS011;27809;51.864;5.646;2023-04-24T03:08:32;27.05;;;13.98;;
42140;SDS011;27809;51.864;5.646;2023-04-24T03:10:58;23.60;;;13.02;;
42140;SDS011;27809;51.864;5.646;2023-04-24T03:13:24;22.40;;;13.02;;
42140;SDS011;27809;51.864;5.646;2023-04-24T03:15:50;20.90;;;12.45;;
42140;SDS011;27809;51.864;5.646;2023-04-24T03:18:15;21.35;;;12.45;;
42140;SDS011;27809;51.864;5.646;2023-04-24T03:20:41;21.77;;;13.32;;
42140;SDS011;27809;51.864;5.646;2023-04-24T03:23:06;25.25;;;13.35;;
42140;SDS011;27809;51.864;5.646;2023-04-24T03:25:32;23.63;;;12.90;;
42140;SDS011;27809;51.864;5.646;2023-04-24T03:27:57;28.45;;;14.93;;
42140;SDS011;27809;51.864;5.646;2023-04-24T03:30:23;25.95;;;13.23;;
42140;SDS011;27809;51.864;5.646;2023-04-24T03:32:48;23.25;;;14.55;;
42140;SDS011;27809;51.864;5.646;2023-04-24T03:35:14;25.77;;;13.95;;
42140;SDS011;27809;51.864;5.646;2023-04-24T03:37:40;24.92;;;13.57;;
42140;SDS011;27809;51.864;5.646;2023-04-24T03:40:05;27.55;;;15.68;;
42140;SDS011;27809;51.864;5.646;2023-04-24T03:42:32;26.95;;;15.50;;
42140;SDS011;27809;51.864;5.646;2023-04-24T03:44:57;31.98;;;14.95;;
42140;SDS011;27809;51.864;5.646;2023-04-24T03:47:23;28.58;;;14.68;;
42140;SDS011;27809;51.864;5.646;2023-04-24T03:49:48;26.52;;;15.18;;
42140;SDS011;27809;51.864;5.646;2023-04-24T03:52:14;25.20;;;12.98;;
42140;SDS011;27809;51.864;5.646;2023-04-24T03:54:39;24.95;;;14.50;;
42140;SDS011;27809;51.864;5.646;2023-04-24T03:57:05;28.85;;;14.45;;
42140;SDS011;27809;51.864;5.646;2023-04-24T03:59:30;24.08;;;13.82;;
42140;SDS011;27809;51.864;5.646;2023-04-24T04:01:56;24.63;;;13.55;;
42140;SDS011;27809;51.864;5.646;2023-04-24T04:04:21;23.45;;;12.93;;
42140;SDS011;27809;51.864;5.646;2023-04-24T04:06:47;24.63;;;14.43;;
42140;SDS011;27809;51.864;5.646;2023-04-24T04:09:13;25.67;;;11.85;;
42140;SDS011;27809;51.864;5.646;2023-04-24T04:11:38;28.15;;;14.43;;
42140;SDS011;27809;51.864;5.646;2023-04-24T04:14:04;33.70;;;14.77;;
42140;SDS011;27809;51.864;5.646;2023-04-24T04:16:30;24.98;;;12.98;;
42140;SDS011;27809;51.864;5.646;2023-04-24T04:18:55;23.77;;;12.77;;
42140;SDS011;27809;51.864;5.646;2023-04-24T04:21:21;21.17;;;11.57;;
42140;SDS011;27809;51.864;5.646;2023-04-24T04:23:47;18.92;;;11.35;;
42140;SDS011;27809;51.864;5.646;2023-04-24T04:26:13;26.83;;;12.68;;
42140;SDS011;27809;51.864;5.646;2023-04-24T04:28:39;20.15;;;13.00;;
42140;SDS011;27809;51.864;5.646;2023-04-24T04:31:04;19.25;;;11.75;;
42140;SDS011;27809;51.864;5.646;2023-04-24T04:33:30;20.27;;;12.02;;
42140;SDS011;27809;51.864;5.646;2023-04-24T04:35:56;21.88;;;11.57;;
42140;SDS011;27809;51.864;5.646;2023-04-24T04:38:22;26.55;;;11.55;;
42140;SDS011;27809;51.864;5.646;2023-04-24T04:40:47;22.50;;;12.48;;
42140;SDS011;27809;51.864;5.646;2023-04-24T04:43:13;24.67;;;13.40;;
42140;SDS011;27809;51.864;5.646;2023-04-24T04:45:40;24.58;;;12.80;;
42140;SDS011;27809;51.864;5.646;2023-04-24T04:48:07;18.23;;;10.30;;
42140;SDS011;27809;51.864;5.646;2023-04-24T04:50:34;24.17;;;13.02;;
42140;SDS011;27809;51.864;5.646;2023-04-24T04:53:00;18.67;;;10.23;;
42140;SDS011;27809;51.864;5.646;2023-04-24T04:55:25;18.40;;;10.45;;
42140;SDS011;27809;51.864;5.646;2023-04-24T04:57:51;13.50;;;8.38;;
42140;SDS011;27809;51.864;5.646;2023-04-24T05:00:17;15.60;;;8.25;;
42140;SDS011;27809;51.864;5.646;2023-04-24T05:02:43;18.13;;;11.10;;
42140;SDS011;27809;51.864;5.646;2023-04-24T05:05:09;17.02;;;9.43;;
42140;SDS011;27809;51.864;5.646;2023-04-24T05:07:34;14.57;;;8.93;;
42140;SDS011;27809;51.864;5.646;2023-04-24T05:10:00;19.85;;;10.48;;
42140;SDS011;27809;51.864;5.646;2023-04-24T05:12:26;19.70;;;8.57;;
42140;SDS011;27809;51.864;5.646;2023-04-24T05:14:52;14.85;;;8.52;;
42140;SDS011;27809;51.864;5.646;2023-04-24T05:17:17;13.43;;;7.32;;
42140;SDS011;27809;51.864;5.646;2023-04-24T05:19:43;13.23;;;8.23;;
42140;SDS011;27809;51.864;5.646;2023-04-24T05:22:09;16.27;;;9.07;;
42140;SDS011;27809;51.864;5.646;2023-04-24T05:24:35;12.77;;;7.35;;
42140;SDS011;27809;51.864;5.646;2023-04-24T05:27:04;10.43;;;6.82;;
42140;SDS011;27809;51.864;5.646;2023-04-24T05:29:30;12.88;;;6.03;;
42140;SDS011;27809;51.864;5.646;2023-04-24T05:31:56;7.15;;;4.22;;
42140;SDS011;27809;51.864;5.646;2023-04-24T05:34:22;8.55;;;4.65;;
42140;SDS011;27809;51.864;5.646;2023-04-24T05:36:48;7.43;;;5.18;;
42140;SDS011;27809;51.864;5.646;2023-04-24T05:39:13;9.05;;;4.70;;
42140;SDS011;27809;51.864;5.646;2023-04-24T05:41:40;8.68;;;4.65;;
42140;SDS011;27809;51.864;5.646;2023-04-24T05:44:05;7.15;;;4.68;;
42140;SDS011;27809;51.864;5.646;2023-04-24T05:46:31;6.72;;;4.10;;
42140;SDS011;27809;51.864;5.646;2023-04-24T05:48:56;3.42;;;2.40;;
42140;SDS011;27809;51.864;5.646;2023-04-24T05:51:22;4.80;;;2.67;;
42140;SDS011;27809;51.864;5.646;2023-04-24T05:53:48;5.22;;;3.03;;
42140;SDS011;27809;51.864;5.646;2023-04-24T05:56:13;7.53;;;2.13;;
42140;SDS011;27809;51.864;5.646;2023-04-24T05:58:40;2.40;;;1.45;;
42140;SDS011;27809;51.864;5.646;2023-04-24T06:01:06;2.95;;;2.08;;
42140;SDS011;27809;51.864;5.646;2023-04-24T06:03:31;5.40;;;3.05;;
42140;SDS011;27809;51.864;5.646;2023-04-24T06:05:57;3.17;;;1.48;;
42140;SDS011;27809;51.864;5.646;2023-04-24T06:08:23;2.63;;;1.40;;
42140;SDS011;27809;51.864;5.646;2023-04-24T06:10:48;2.50;;;1.52;;
42140;SDS011;27809;51.864;5.646;2023-04-24T06:13:14;2.05;;;1.50;;
42140;SDS011;27809;51.864;5.646;2023-04-24T06:15:40;4.30;;;1.85;;
42140;SDS011;27809;51.864;5.646;2023-04-24T06:18:06;1.33;;;0.73;;
42140;SDS011;27809;51.864;5.646;2023-04-24T06:20:32;1.80;;;0.82;;
42140;SDS011;27809;51.864;5.646;2023-04-24T06:22:57;0.93;;;0.60;;
42140;SDS011;27809;51.864;5.646;2023-04-24T06:25:26;2.60;;;0.98;;
42140;SDS011;27809;51.864;5.646;2023-04-24T06:27:53;0.30;;;0.22;;
42140;SDS011;27809;51.864;5.646;2023-04-24T06:30:20;0.28;;;0.10;;
42140;SDS011;27809;51.864;5.646;2023-04-24T06:32:45;3.78;;;0.63;;
42140;SDS011;27809;51.864;5.646;2023-04-24T06:35:11;1.20;;;0.13;;
42140;SDS011;27809;51.864;5.646;2023-04-24T06:37:37;1.27;;;0.77;;
42140;SDS011;27809;51.864;5.646;2023-04-24T06:40:06;0.50;;;0.10;;
42140;SDS011;27809;51.864;5.646;2023-04-24T06:42:32;0.57;;;0.20;;
42140;SDS011;27809;51.864;5.646;2023-04-24T06:44:57;0.30;;;0.10;;
42140;SDS011;27809;51.864;5.646;2023-04-24T06:47:24;1.45;;;0.32;;
42140;SDS011;27809;51.864;5.646;2023-04-24T06:49:49;1.17;;;0.47;;
42140;SDS011;27809;51.864;5.646;2023-04-24T06:52:17;0.30;;;0.00;;
42140;SDS011;27809;51.864;5.646;2023-04-24T06:54:43;0.00;;;0.00;;
42140;SDS011;27809;51.864;5.646;2023-04-24T06:57:08;0.45;;;0.10;;
42140;SDS011;27809;51.864;5.646;2023-04-24T06:59:35;2.95;;;0.20;;
42140;SDS011;27809;51.864;5.646;2023-04-24T07:02:01;0.38;;;0.00;;
42140;SDS011;27809;51.864;5.646;2023-04-24T07:04:26;1.08;;;0.17;;
42140;SDS011;27809;51.864;5.646;2023-04-24T07:06:52;0.38;;;0.25;;
42140;SDS011;27809;51.864;5.646;2023-04-24T07:09:23;0.68;;;0.20;;
42140;SDS011;27809;51.864;5.646;2023-04-24T07:11:50;0.98;;;0.30;;
42140;SDS011;27809;51.864;5.646;2023-04-24T07:14:19;0.73;;;0.20;;
42140;SDS011;27809;51.864;5.646;2023-04-24T07:16:45;0.63;;;0.30;;
42140;SDS011;27809;51.864;5.646;2023-04-24T07:19:11;1.08;;;0.60;;
42140;SDS011;27809;51.864;5.646;2023-04-24T07:21:37;1.05;;;0.60;;
42140;SDS011;27809;51.864;5.646;2023-04-24T07:24:03;4.07;;;1.27;;
42140;SDS011;27809;51.864;5.646;2023-04-24T07:26:29;2.15;;;1.23;;
42140;SDS011;27809;51.864;5.646;2023-04-24T07:28:55;3.33;;;1.77;;
42140;SDS011;27809;51.864;5.646;2023-04-24T07:31:21;3.60;;;2.00;;
42140;SDS011;27809;51.864;5.646;2023-04-24T07:33:47;4.03;;;2.10;;
42140;SDS011;27809;51.864;5.646;2023-04-24T07:36:13;6.47;;;3.55;;
42140;SDS011;27809;51.864;5.646;2023-04-24T07:38:42;7.63;;;3.63;;
42140;SDS011;27809;51.864;5.646;2023-04-24T07:41:08;16.90;;;5.05;;
42140;SDS011;27809;51.864;5.646;2023-04-24T07:43:34;8.00;;;4.72;;
42140;SDS011;27809;51.864;5.646;2023-04-24T07:46:00;12.20;;;4.38;;
42140;SDS011;27809;51.864;5.646;2023-04-24T07:48:25;10.15;;;5.50;;
42140;SDS011;27809;51.864;5.646;2023-04-24T07:50:51;16.15;;;4.45;;
42140;SDS011;27809;51.864;5.646;2023-04-24T07:53:17;12.52;;;5.80;;
42140;SDS011;27809;51.864;5.646;2023-04-24T07:55:43;9.85;;;5.13;;
42140;SDS011;27809;51.864;5.646;2023-04-24T07:58:08;11.73;;;5.90;;
42140;SDS011;27809;51.864;5.646;2023-04-24T08:00:34;13.55;;;6.20;;
42140;SDS011;27809;51.864;5.646;2023-04-24T08:03:00;11.27;;;6.13;;
42140;SDS011;27809;51.864;5.646;2023-04-24T08:05:26;19.15;;;6.55;;
42140;SDS011;27809;51.864;5.646;2023-04-24T08:07:53;17.50;;;6.55;;
42140;SDS011;27809;51.864;5.646;2023-04-24T08:10:19;11.43;;;4.68;;
42140;SDS011;27809;51.864;5.646;2023-04-24T08:12:46;13.32;;;5.05;;
42140;SDS011;27809;51.864;5.646;2023-04-24T08:15:11;11.35;;;5.00;;
42140;SDS011;27809;51.864;5.646;2023-04-24T08:17:37;14.93;;;4.90;;
42140;SDS011;27809;51.864;5.646;2023-04-24T08:20:03;10.95;;;4.78;;
42140;SDS011;27809;51.864;5.646;2023-04-24T08:22:30;14.30;;;4.53;;
42140;SDS011;27809;51.864;5.646;2023-04-24T08:24:56;12.25;;;4.93;;
42140;SDS011;27809;51.864;5.646;2023-04-24T08:27:22;20.27;;;4.88;;
42140;SDS011;27809;51.864;5.646;2023-04-24T08:29:48;12.13;;;3.60;;
42140;SDS011;27809;51.864;5.646;2023-04-24T08:32:14;11.85;;;3.63;;
42140;SDS011;27809;51.864;5.646;2023-04-24T08:34:39;16.23;;;3.70;;
42140;SDS011;27809;51.864;5.646;2023-04-24T08:37:05;10.93;;;2.78;;
42140;SDS011;27809;51.864;5.646;2023-04-24T08:39:30;14.55;;;5.75;;
42140;SDS011;27809;51.864;5.646;2023-04-24T08:41:56;17.20;;;3.75;;
42140;SDS011;27809;51.864;5.646;2023-04-24T08:44:22;15.80;;;5.75;;
42140;SDS011;27809;51.864;5.646;2023-04-24T08:46:48;17.25;;;3.70;;
42140;SDS011;27809;51.864;5.646;2023-04-24T08:49:14;11.75;;;3.28;;
42140;SDS011;27809;51.864;5.646;2023-04-24T08:51:43;11.05;;;2.15;;
42140;SDS011;27809;51.864;5.646;2023-04-24T08:54:11;14.77;;;4.07;;
42140;SDS011;27809;51.864;5.646;2023-04-24T08:56:37;15.93;;;1.85;;
42140;SDS011;27809;51.864;5.646;2023-04-24T08:59:05;11.57;;;2.25;;
42140;SDS011;27809;51.864;5.646;2023-04-24T09:01:32;9.40;;;1.70;;
42140;SDS011;27809;51.864;5.646;2023-04-24T09:03:58;14.57;;;2.40;;
42140;SDS011;27809;51.864;5.646;2023-04-24T09:06:29;5.28;;;2.08;;
42140;SDS011;27809;51.864;5.646;2023-04-24T09:08:57;11.35;;;1.35;;
42140;SDS011;27809;51.864;5.646;2023-04-24T09:11:25;7.22;;;1.30;;
42140;SDS011;27809;51.864;5.646;2023-04-24T09:13:52;17.48;;;2.45;;
42140;SDS011;27809;51.864;5.646;2023-04-24T09:16:19;11.50;;;1.33;;
42140;SDS011;27809;51.864;5.646;2023-04-24T09:18:45;6.72;;;1.40;;
42140;SDS011;27809;51.864;5.646;2023-04-24T09:21:11;3.22;;;1.60;;
42140;SDS011;27809;51.864;5.646;2023-04-24T09:23:38;5.88;;;1.63;;
42140;SDS011;27809;51.864;5.646;2023-04-24T09:26:04;1.58;;;0.88;;
42140;SDS011;27809;51.864;5.646;2023-04-24T09:28:40;12.57;;;2.83;;
42140;SDS011;27809;51.864;5.646;2023-04-24T09:33:35;6.85;;;1.63;;
42140;SDS011;27809;51.864;5.646;2023-04-24T09:36:01;7.05;;;1.30;;
42140;SDS011;27809;51.864;5.646;2023-04-24T09:38:31;12.88;;;2.28;;
42140;SDS011;27809;51.864;5.646;2023-04-24T09:43:38;3.42;;;1.17;;
42140;SDS011;27809;51.864;5.646;2023-04-24T09:46:04;5.85;;;1.23;;
42140;SDS011;27809;51.864;5.646;2023-04-24T09:48:32;7.10;;;1.30;;
42140;SDS011;27809;51.864;5.646;2023-04-24T09:51:01;10.55;;;2.33;;
42140;SDS011;27809;51.864;5.646;2023-04-24T09:53:28;9.50;;;2.00;;
42140;SDS011;27809;51.864;5.646;2023-04-24T09:55:54;7.35;;;0.70;;
42140;SDS011;27809;51.864;5.646;2023-04-24T09:58:27;5.15;;;0.50;;
42140;SDS011;27809;51.864;5.646;2023-04-24T10:00:54;3.92;;;0.93;;
42140;SDS011;27809;51.864;5.646;2023-04-24T10:03:21;6.63;;;1.35;;
42140;SDS011;27809;51.864;5.646;2023-04-24T10:05:51;7.28;;;2.13;;
42140;SDS011;27809;51.864;5.646;2023-04-24T10:08:17;4.40;;;0.90;;
42140;SDS011;27809;51.864;5.646;2023-04-24T10:10:43;4.45;;;1.08;;
42140;SDS011;27809;51.864;5.646;2023-04-24T10:13:10;2.22;;;0.63;;
42140;SDS011;27809;51.864;5.646;2023-04-24T10:15:38;2.33;;;1.50;;
42140;SDS011;27809;51.864;5.646;2023-04-24T10:18:05;1.40;;;0.63;;
42140;SDS011;27809;51.864;5.646;2023-04-24T10:20:33;8.80;;;1.10;;
42140;SDS011;27809;51.864;5.646;2023-04-24T10:23:00;5.68;;;1.30;;
42140;SDS011;27809;51.864;5.646;2023-04-24T10:25:29;3.10;;;1.08;;
42140;SDS011;27809;51.864;5.646;2023-04-24T10:27:57;8.02;;;1.00;;
42140;SDS011;27809;51.864;5.646;2023-04-24T10:30:25;2.47;;;0.68;;
42140;SDS011;27809;51.864;5.646;2023-04-24T10:33:02;12.23;;;1.65;;
42140;SDS011;27809;51.864;5.646;2023-04-24T10:35:30;2.75;;;0.57;;
42140;SDS011;27809;51.864;5.646;2023-04-24T10:38:08;11.05;;;1.38;;
42140;SDS011;27809;51.864;5.646;2023-04-24T10:40:36;3.25;;;0.50;;
42140;SDS011;27809;51.864;5.646;2023-04-24T10:43:03;2.95;;;0.63;;
42140;SDS011;27809;51.864;5.646;2023-04-24T10:45:34;5.57;;;0.60;;
42140;SDS011;27809;51.864;5.646;2023-04-24T10:48:08;4.70;;;0.70;;
42140;SDS011;27809;51.864;5.646;2023-04-24T10:50:51;3.25;;;0.82;;
42140;SDS011;27809;51.864;5.646;2023-04-24T10:53:18;5.60;;;0.90;;
42140;SDS011;27809;51.864;5.646;2023-04-24T10:55:47;6.45;;;0.40;;
42140;SDS011;27809;51.864;5.646;2023-04-24T10:58:14;2.75;;;0.30;;
42140;SDS011;27809;51.864;5.646;2023-04-24T11:00:41;3.95;;;0.60;;
42140;SDS011;27809;51.864;5.646;2023-04-24T11:03:30;16.95;;;2.40;;
42140;SDS011;27809;51.864;5.646;2023-04-24T11:05:57;1.88;;;0.32;;
42140;SDS011;27809;51.864;5.646;2023-04-24T11:08:28;1.55;;;0.20;;
42140;SDS011;27809;51.864;5.646;2023-04-24T11:11:02;2.72;;;0.40;;
42140;SDS011;27809;51.864;5.646;2023-04-24T11:18:52;3.80;;;0.65;;
42140;SDS011;27809;51.864;5.646;2023-04-24T11:22:01;4.03;;;0.45;;
42140;SDS011;27809;51.864;5.646;2023-04-24T11:29:47;3.22;;;0.55;;
42140;SDS011;27809;51.864;5.646;2023-04-24T11:34:45;3.70;;;0.20;;
42140;SDS011;27809;51.864;5.646;2023-04-24T11:37:12;7.03;;;0.20;;
42140;SDS011;27809;51.864;5.646;2023-04-24T11:39:38;7.93;;;1.10;;
42140;SDS011;27809;51.864;5.646;2023-04-24T11:42:03;1.75;;;0.20;;
42140;SDS011;27809;51.864;5.646;2023-04-24T11:44:31;2.38;;;0.38;;
42140;SDS011;27809;51.864;5.646;2023-04-24T11:46:58;1.88;;;0.65;;
42140;SDS011;27809;51.864;5.646;2023-04-24T11:49:24;2.95;;;0.85;;
42140;SDS011;27809;51.864;5.646;2023-04-24T11:51:50;1.38;;;0.10;;
42140;SDS011;27809;51.864;5.646;2023-04-24T11:54:20;1.30;;;0.20;;
42140;SDS011;27809;51.864;5.646;2023-04-24T11:56:46;2.38;;;0.30;;
42140;SDS011;27809;51.864;5.646;2023-04-24T11:59:12;11.30;;;0.50;;
42140;SDS011;27809;51.864;5.646;2023-04-24T12:01:43;0.55;;;0.08;;
42140;SDS011;27809;51.864;5.646;2023-04-24T12:04:10;7.03;;;0.68;;
42140;SDS011;27809;51.864;5.646;2023-04-24T12:06:36;1.98;;;0.22;;
42140;SDS011;27809;51.864;5.646;2023-04-24T12:09:01;3.15;;;0.20;;
42140;SDS011;27809;51.864;5.646;2023-04-24T12:11:27;1.40;;;0.20;;
42140;SDS011;27809;51.864;5.646;2023-04-24T12:13:53;3.45;;;0.22;;
42140;SDS011;27809;51.864;5.646;2023-04-24T12:16:18;2.25;;;0.30;;
42140;SDS011;27809;51.864;5.646;2023-04-24T12:18:44;1.63;;;0.15;;
42140;SDS011;27809;51.864;5.646;2023-04-24T12:23:50;3.08;;;0.40;;
42140;SDS011;27809;51.864;5.646;2023-04-24T12:26:16;2.70;;;0.57;;
42140;SDS011;27809;51.864;5.646;2023-04-24T12:28:46;1.48;;;0.40;;
42140;SDS011;27809;51.864;5.646;2023-04-24T12:31:14;4.32;;;0.50;;
42140;SDS011;27809;51.864;5.646;2023-04-24T12:33:40;12.18;;;1.35;;
42140;SDS011;27809;51.864;5.646;2023-04-24T12:36:05;1.42;;;0.25;;
42140;SDS011;27809;51.864;5.646;2023-04-24T12:38:31;5.15;;;1.15;;
42140;SDS011;27809;51.864;5.646;2023-04-24T12:41:08;2.90;;;0.70;;
42140;SDS011;27809;51.864;5.646;2023-04-24T12:43:36;5.22;;;0.55;;
42140;SDS011;27809;51.864;5.646;2023-04-24T12:46:02;1.02;;;0.40;;
42140;SDS011;27809;51.864;5.646;2023-04-24T12:48:28;3.05;;;0.15;;
42140;SDS011;27809;51.864;5.646;2023-04-24T12:50:54;5.75;;;0.75;;
42140;SDS011;27809;51.864;5.646;2023-04-24T12:53:21;3.03;;;0.60;;
42140;SDS011;27809;51.864;5.646;2023-04-24T12:55:46;3.90;;;0.40;;
42140;SDS011;27809;51.864;5.646;2023-04-24T12:58:17;1.10;;;0.13;;
42140;SDS011;27809;51.864;5.646;2023-04-24T13:00:46;1.98;;;0.45;;
42140;SDS011;27809;51.864;5.646;2023-04-24T13:03:13;3.65;;;1.08;;
42140;SDS011;27809;51.864;5.646;2023-04-24T13:05:38;3.80;;;0.75;;
42140;SDS011;27809;51.864;5.646;2023-04-24T13:08:04;4.80;;;0.82;;
42140;SDS011;27809;51.864;5.646;2023-04-24T13:10:30;3.75;;;0.65;;
42140;SDS011;27809;51.864;5.646;2023-04-24T13:12:55;1.15;;;0.80;;
42140;SDS011;27809;51.864;5.646;2023-04-24T13:15:21;5.82;;;0.75;;
42140;SDS011;27809;51.864;5.646;2023-04-24T13:17:47;4.30;;;0.43;;
42140;SDS011;27809;51.864;5.646;2023-04-24T13:20:12;9.70;;;1.35;;
42140;SDS011;27809;51.864;5.646;2023-04-24T13:22:38;4.30;;;0.30;;
42140;SDS011;27809;51.864;5.646;2023-04-24T13:25:04;15.43;;;1.15;;
42140;SDS011;27809;51.864;5.646;2023-04-24T13:27:31;4.20;;;0.80;;
42140;SDS011;27809;51.864;5.646;2023-04-24T13:29:56;6.65;;;1.50;;
42140;SDS011;27809;51.864;5.646;2023-04-24T13:32:22;3.70;;;1.88;;
42140;SDS011;27809;51.864;5.646;2023-04-24T13:34:47;7.28;;;1.08;;
42140;SDS011;27809;51.864;5.646;2023-04-24T13:37:13;2.85;;;0.77;;
42140;SDS011;27809;51.864;5.646;2023-04-24T13:39:40;36.65;;;4.22;;
42140;SDS011;27809;51.864;5.646;2023-04-24T13:42:06;5.13;;;1.23;;
42140;SDS011;27809;51.864;5.646;2023-04-24T13:44:31;10.70;;;1.85;;
42140;SDS011;27809;51.864;5.646;2023-04-24T13:46:57;4.75;;;0.70;;
42140;SDS011;27809;51.864;5.646;2023-04-24T13:49:24;6.43;;;2.28;;
42140;SDS011;27809;51.864;5.646;2023-04-24T13:51:50;12.93;;;2.05;;
42140;SDS011;27809;51.864;5.646;2023-04-24T13:54:16;3.45;;;0.85;;
42140;SDS011;27809;51.864;5.646;2023-04-24T13:56:42;5.47;;;1.45;;
42140;SDS011;27809;51.864;5.646;2023-04-24T13:59:07;9.57;;;1.40;;
42140;SDS011;27809;51.864;5.646;2023-04-24T14:01:33;6.07;;;1.55;;
42140;SDS011;27809;51.864;5.646;2023-04-24T14:03:59;7.97;;;1.30;;
42140;SDS011;27809;51.864;5.646;2023-04-24T14:06:25;5.60;;;2.22;;
42140;SDS011;27809;51.864;5.646;2023-04-24T14:08:50;4.45;;;0.77;;
42140;SDS011;27809;51.864;5.646;2023-04-24T14:11:17;5.13;;;0.88;;
42140;SDS011;27809;51.864;5.646;2023-04-24T14:13:43;3.08;;;0.88;;
42140;SDS011;27809;51.864;5.646;2023-04-24T14:16:10;4.10;;;0.65;;
42140;SDS011;27809;51.864;5.646;2023-04-24T14:18:36;5.07;;;0.47;;
42140;SDS011;27809;51.864;5.646;2023-04-24T14:21:02;5.35;;;1.27;;
42140;SDS011;27809;51.864;5.646;2023-04-24T14:23:30;7.15;;;1.35;;
42140;SDS011;27809;51.864;5.646;2023-04-24T14:25:57;7.40;;;0.60;;
42140;SDS011;27809;51.864;5.646;2023-04-24T14:28:23;2.88;;;0.60;;
42140;SDS011;27809;51.864;5.646;2023-04-24T14:30:49;9.88;;;1.42;;
42140;SDS011;27809;51.864;5.646;2023-04-24T14:33:15;8.68;;;1.83;;
42140;SDS011;27809;51.864;5.646;2023-04-24T14:35:40;5.07;;;1.38;;
42140;SDS011;27809;51.864;5.646;2023-04-24T14:38:09;10.75;;;1.73;;
42140;SDS011;27809;51.864;5.646;2023-04-24T14:40:35;6.65;;;0.93;;
42140;SDS011;27809;51.864;5.646;2023-04-24T14:43:02;12.75;;;2.50;;
42140;SDS011;27809;51.864;5.646;2023-04-24T14:45:28;5.53;;;0.50;;
42140;SDS011;27809;51.864;5.646;2023-04-24T14:47:54;7.80;;;1.35;;
42140;SDS011;27809;51.864;5.646;2023-04-24T14:50:20;6.53;;;1.92;;
42140;SDS011;27809;51.864;5.646;2023-04-24T14:52:46;12.50;;;1.75;;
42140;SDS011;27809;51.864;5.646;2023-04-24T14:55:12;4.63;;;1.42;;